createdAt,value
2017-10-27T00:00:15.968Z,0
2017-10-27T00:01:26.395Z,0
2017-10-27T00:02:36.469Z,0
2017-10-27T00:03:46.860Z,0
2017-10-27T00:04:57.295Z,0
2017-10-27T00:06:07.689Z,0
2017-10-27T00:07:17.766Z,0
2017-10-27T00:08:28.173Z,0
2017-10-27T00:09:38.245Z,0
2017-10-27T00:10:48.644Z,0
2017-10-27T00:11:59.046Z,0
2017-10-27T00:13:09.460Z,0
2017-10-27T00:14:19.895Z,0
2017-10-27T00:15:30.306Z,0
2017-10-27T00:16:40.712Z,0
2017-10-27T00:17:51.106Z,0
2017-10-27T00:19:01.508Z,0
2017-10-27T00:20:11.608Z,0
2017-10-27T00:21:21.672Z,0
2017-10-27T00:22:32.236Z,0
2017-10-27T00:23:42.639Z,0
2017-10-27T00:24:52.728Z,0
2017-10-27T00:26:03.129Z,0
2017-10-27T00:27:13.540Z,0
2017-10-27T00:28:24.015Z,0
2017-10-27T00:29:34.417Z,0
2017-10-27T00:30:44.505Z,0
2017-10-27T00:31:54.907Z,0
2017-10-27T00:33:05.323Z,0
2017-10-27T00:34:16.844Z,0
2017-10-27T00:35:27.247Z,0
2017-10-27T00:36:37.325Z,0
2017-10-27T00:37:47.416Z,0
2017-10-27T00:38:57.817Z,0
2017-10-27T00:40:08.268Z,0
2017-10-27T00:41:18.685Z,0
2017-10-27T00:42:29.111Z,0
2017-10-27T00:43:39.509Z,0
2017-10-27T00:44:49.591Z,0
2017-10-27T00:46:00.100Z,0
2017-10-27T00:47:10.489Z,0
2017-10-27T00:48:20.909Z,0
2017-10-27T00:49:31.302Z,0
2017-10-27T00:50:41.404Z,0
2017-10-27T00:51:51.805Z,0
2017-10-27T00:53:02.199Z,0
2017-10-27T00:54:12.598Z,0
2017-10-27T00:55:23.016Z,0
2017-10-27T00:56:33.434Z,0
2017-10-27T00:57:43.505Z,0
2017-10-27T00:58:53.891Z,0
2017-10-27T01:00:04.289Z,0
2017-10-27T01:01:14.699Z,0
2017-10-27T01:02:24.767Z,0
2017-10-27T01:03:35.178Z,0
2017-10-27T01:04:45.577Z,0
2017-10-27T01:05:55.978Z,0
2017-10-27T01:07:06.373Z,0
2017-10-27T01:08:16.786Z,0
2017-10-27T01:09:27.252Z,0
2017-10-27T01:10:37.650Z,0
2017-10-27T01:11:47.717Z,0
2017-10-27T01:12:57.802Z,0
2017-10-27T01:14:07.861Z,0
2017-10-27T01:15:17.931Z,0
2017-10-27T01:16:28.325Z,0
2017-10-27T01:17:38.715Z,0
2017-10-27T01:18:48.779Z,0
2017-10-27T01:19:59.198Z,0
2017-10-27T01:21:09.585Z,0
2017-10-27T01:22:19.981Z,0
2017-10-27T01:23:30.389Z,0
2017-10-27T01:24:40.776Z,0
2017-10-27T01:25:50.853Z,0
2017-10-27T01:27:00.924Z,0
2017-10-27T01:28:10.997Z,0
2017-10-27T01:29:21.402Z,0
2017-10-27T01:30:31.847Z,0
2017-10-27T01:31:41.907Z,0
2017-10-27T01:32:52.369Z,0
2017-10-27T01:34:02.610Z,0
2017-10-27T01:35:12.676Z,0
2017-10-27T01:36:22.743Z,0
2017-10-27T01:37:33.140Z,0
2017-10-27T01:38:43.545Z,0
2017-10-27T01:39:53.623Z,0
2017-10-27T01:41:03.692Z,0
2017-10-27T01:42:13.752Z,0
2017-10-27T01:43:24.164Z,0
2017-10-27T01:44:34.308Z,0
2017-10-27T01:45:44.720Z,0
2017-10-27T01:46:55.133Z,0
2017-10-27T01:48:05.532Z,0
2017-10-27T01:49:15.949Z,0
2017-10-27T01:50:26.411Z,0
2017-10-27T01:51:36.491Z,0
2017-10-27T01:52:46.910Z,0
2017-10-27T01:53:57.296Z,0
2017-10-27T01:55:07.367Z,0
2017-10-27T01:56:17.825Z,0
2017-10-27T01:57:27.915Z,0
2017-10-27T01:58:37.978Z,0
2017-10-27T01:59:48.379Z,0
2017-10-27T02:00:58.121Z,0
2017-10-27T02:02:08.522Z,0
2017-10-27T02:03:18.587Z,0
2017-10-27T02:04:29.026Z,0
2017-10-27T02:05:39.419Z,0
2017-10-27T02:06:49.821Z,0
2017-10-27T02:08:00.211Z,0
2017-10-27T02:09:10.644Z,0
2017-10-27T02:10:21.047Z,0
2017-10-27T02:11:31.121Z,0
2017-10-27T02:12:41.188Z,0
2017-10-27T02:13:50.976Z,0
2017-10-27T02:15:00.715Z,0
2017-10-27T02:16:11.119Z,0
2017-10-27T02:17:21.519Z,0
2017-10-27T02:18:31.599Z,0
2017-10-27T02:19:41.992Z,0
2017-10-27T02:20:51.742Z,0
2017-10-27T02:22:01.811Z,0
2017-10-27T02:23:12.206Z,0
2017-10-27T02:24:25.546Z,0
2017-10-27T02:25:36.373Z,0
2017-10-27T02:26:52.443Z,0
2017-10-27T02:28:03.330Z,0
2017-10-27T02:29:17.646Z,0
2017-10-27T02:30:32.240Z,0
2017-10-27T02:31:46.017Z,0
2017-10-27T02:33:16.885Z,0
2017-10-27T02:34:41.227Z,0
2017-10-27T02:35:55.014Z,0
2017-10-27T02:37:22.890Z,0
2017-10-27T02:38:43.792Z,0
2017-10-27T02:39:59.686Z,0
2017-10-27T02:41:13.903Z,0
2017-10-27T02:42:56.910Z,0
2017-10-27T02:44:12.107Z,0
2017-10-27T02:45:27.622Z,0
2017-10-27T02:46:43.319Z,0
2017-10-27T02:48:04.449Z,0
2017-10-27T02:49:15.091Z,0
2017-10-27T02:50:24.853Z,0
2017-10-27T02:51:37.721Z,0
2017-10-27T02:52:55.227Z,0
2017-10-27T02:54:10.841Z,0
2017-10-27T02:55:21.248Z,0
2017-10-27T02:56:31.674Z,0
2017-10-27T02:57:42.097Z,0
2017-10-27T02:58:52.175Z,0
2017-10-27T03:00:02.593Z,0
2017-10-27T03:01:13.003Z,0
2017-10-27T03:33:32.610Z,0
2017-10-27T03:34:42.383Z,0
2017-10-27T03:35:52.442Z,0
2017-10-27T03:37:02.824Z,0
2017-10-27T03:38:13.222Z,0
2017-10-27T03:39:23.674Z,0
2017-10-27T03:40:34.074Z,0
2017-10-27T03:41:44.143Z,0
2017-10-27T03:42:54.535Z,0
2017-10-27T03:44:04.610Z,0
2017-10-27T03:45:14.759Z,0
2017-10-27T03:46:24.840Z,0
2017-10-27T03:47:34.902Z,0
2017-10-27T03:48:45.308Z,0
2017-10-27T03:49:55.393Z,0
2017-10-27T03:51:05.460Z,0
2017-10-27T03:52:15.535Z,0
2017-10-27T03:53:25.609Z,0
2017-10-27T03:54:36.003Z,0
2017-10-27T03:55:46.402Z,0
2017-10-27T03:56:56.795Z,0
2017-10-27T03:58:07.195Z,0
2017-10-27T03:59:16.934Z,0
2017-10-27T04:00:27.005Z,0
2017-10-27T04:01:37.430Z,0
2017-10-27T04:02:47.900Z,0
2017-10-27T04:03:57.966Z,0
2017-10-27T04:05:08.370Z,0
2017-10-27T04:06:18.764Z,0
2017-10-27T04:07:29.190Z,0
2017-10-27T04:08:39.592Z,0
2017-10-27T04:09:49.982Z,0
2017-10-27T04:11:00.418Z,0
2017-10-27T04:12:10.846Z,0
2017-10-27T04:13:20.933Z,0
2017-10-27T04:14:31.335Z,0
2017-10-27T04:15:41.742Z,0
2017-10-27T04:16:52.145Z,0
2017-10-27T04:18:02.222Z,0
2017-10-27T04:19:12.630Z,0
2017-10-27T04:20:23.832Z,0
2017-10-27T04:21:34.251Z,0
2017-10-27T04:22:44.341Z,0
2017-10-27T04:23:55.850Z,0
2017-10-27T04:25:05.942Z,0
2017-10-27T04:26:16.064Z,0
2017-10-27T04:27:26.475Z,0
2017-10-27T04:28:36.571Z,0
2017-10-27T04:29:46.976Z,0
2017-10-27T04:30:57.046Z,0
2017-10-27T04:32:07.498Z,0
2017-10-27T04:33:17.568Z,0
2017-10-27T04:34:27.970Z,0
2017-10-27T04:35:38.039Z,0
2017-10-27T04:36:48.117Z,0
2017-10-27T04:37:58.575Z,0
2017-10-27T04:39:08.980Z,0
2017-10-27T04:40:19.052Z,0
2017-10-27T04:41:29.124Z,0
2017-10-27T04:42:39.537Z,0
2017-10-27T04:43:49.927Z,0
2017-10-27T04:45:00.004Z,0
2017-10-27T04:46:10.430Z,0
2017-10-27T04:47:20.496Z,0
2017-10-27T04:48:30.903Z,0
2017-10-27T04:49:41.370Z,0
2017-10-27T04:50:51.777Z,0
2017-10-27T04:52:02.169Z,0
2017-10-27T04:53:12.241Z,0
2017-10-27T04:54:23.501Z,0
2017-10-27T04:55:33.576Z,0
2017-10-27T04:56:44.010Z,0
2017-10-27T04:57:54.426Z,0
2017-10-27T04:59:04.826Z,0
2017-10-27T05:00:15.234Z,0
2017-10-27T05:01:25.674Z,0
2017-10-27T05:02:36.076Z,0
2017-10-27T05:03:46.472Z,0
2017-10-27T05:04:56.867Z,0
2017-10-27T05:06:07.255Z,0
2017-10-27T05:07:17.677Z,0
2017-10-27T05:08:28.073Z,0
2017-10-27T05:09:38.470Z,0
2017-10-27T05:10:48.866Z,0
2017-10-27T05:11:58.959Z,0
2017-10-27T05:13:09.369Z,0
2017-10-27T05:14:20.024Z,0
2017-10-27T05:15:30.425Z,0
2017-10-27T05:16:40.509Z,0
2017-10-27T05:17:50.250Z,0
2017-10-27T05:18:59.998Z,0
2017-10-27T05:20:10.428Z,0
2017-10-27T05:21:20.821Z,0
2017-10-27T05:22:31.237Z,0
2017-10-27T05:23:41.316Z,0
2017-10-27T05:24:51.076Z,0
2017-10-27T05:26:01.153Z,0
2017-10-27T05:27:11.230Z,0
2017-10-27T05:28:21.303Z,0
2017-10-27T05:29:31.056Z,0
2017-10-27T05:30:41.445Z,0
2017-10-27T05:31:51.514Z,0
2017-10-27T05:33:01.585Z,0
2017-10-27T05:34:12.005Z,0
2017-10-27T05:35:22.078Z,0
2017-10-27T05:36:32.540Z,0
2017-10-27T05:37:42.947Z,0
2017-10-27T05:38:52.689Z,0
2017-10-27T05:40:02.761Z,0
2017-10-27T05:41:12.846Z,0
2017-10-27T05:42:22.924Z,0
2017-10-27T05:43:33.000Z,0
2017-10-27T05:44:43.403Z,0
2017-10-27T05:45:53.798Z,0
2017-10-27T05:47:03.887Z,0
2017-10-27T05:48:14.366Z,0
2017-10-27T05:49:24.790Z,0
2017-10-27T05:50:35.208Z,0
2017-10-27T05:51:45.614Z,0
2017-10-27T05:52:56.028Z,0
2017-10-27T05:54:06.456Z,0
2017-10-27T05:55:16.539Z,0
2017-10-27T05:56:26.944Z,0
2017-10-27T05:57:37.343Z,0
2017-10-27T05:58:47.744Z,0
2017-10-27T05:59:58.137Z,0
2017-10-27T06:01:08.550Z,0
2017-10-27T06:02:18.630Z,0
2017-10-27T06:03:29.042Z,0
2017-10-27T06:04:39.097Z,0
2017-10-27T06:05:49.514Z,0
2017-10-27T06:06:59.926Z,0
2017-10-27T06:08:10.006Z,5
2017-10-27T06:09:20.403Z,5
2017-10-27T06:10:30.155Z,5
2017-10-27T06:11:40.582Z,5
2017-10-27T06:12:50.665Z,5
2017-10-27T06:14:01.062Z,5
2017-10-27T06:15:11.464Z,5
2017-10-27T06:16:21.550Z,5
2017-10-27T06:17:31.992Z,5
2017-10-27T06:18:42.778Z,5
2017-10-27T06:19:53.180Z,5
2017-10-27T06:21:03.338Z,15
2017-10-27T06:22:13.418Z,15
2017-10-27T06:23:23.548Z,10
2017-10-27T06:24:33.967Z,10
2017-10-27T06:25:43.437Z,10
2017-10-27T06:26:53.492Z,10
2017-10-27T06:28:03.580Z,10
2017-10-27T06:29:14.035Z,10
2017-10-27T06:30:24.428Z,10
2017-10-27T06:31:34.516Z,10
2017-10-27T06:32:44.929Z,10
2017-10-27T06:33:54.996Z,10
2017-10-27T06:35:05.073Z,10
2017-10-27T06:36:15.474Z,15
2017-10-27T06:37:25.882Z,15
2017-10-27T06:38:36.273Z,15
2017-10-27T06:39:46.675Z,15
2017-10-27T06:40:56.797Z,20
2017-10-27T06:42:07.198Z,20
2017-10-27T06:43:17.277Z,25
2017-10-27T06:44:27.338Z,25
2017-10-27T06:45:37.748Z,25
2017-10-27T06:46:48.160Z,25
2017-10-27T06:47:58.222Z,25
2017-10-27T06:49:08.636Z,25
2017-10-27T06:50:19.067Z,30
2017-10-27T06:51:29.464Z,35
2017-10-27T06:52:39.608Z,35
2017-10-27T06:53:50.017Z,35
2017-10-27T06:55:00.088Z,35
2017-10-27T06:56:10.505Z,35
2017-10-27T06:57:20.569Z,30
2017-10-27T06:58:30.965Z,20
2017-10-27T06:59:41.371Z,15
2017-10-27T07:00:52.030Z,10
2017-10-27T07:02:02.099Z,5
2017-10-27T07:03:12.515Z,15
2017-10-27T07:04:22.939Z,20
2017-10-27T07:05:33.012Z,15
2017-10-27T07:06:43.414Z,10
2017-10-27T07:07:53.488Z,10
2017-10-27T07:09:03.929Z,15
2017-10-27T07:10:14.058Z,15
2017-10-27T07:11:24.473Z,20
2017-10-27T07:12:34.880Z,20
2017-10-27T07:13:44.627Z,25
2017-10-27T07:14:55.044Z,30
2017-10-27T07:16:05.524Z,30
2017-10-27T07:17:15.923Z,20
2017-10-27T07:18:26.353Z,25
2017-10-27T07:19:36.431Z,40
2017-10-27T07:20:46.832Z,55
2017-10-27T07:21:56.923Z,45
2017-10-27T07:23:07.343Z,35
2017-10-27T07:24:17.101Z,30
2017-10-27T07:25:27.500Z,35
2017-10-27T07:26:37.935Z,45
2017-10-27T07:27:48.433Z,50
2017-10-27T07:28:58.503Z,45
2017-10-27T07:30:08.590Z,30
2017-10-27T07:31:19.004Z,15
2017-10-27T07:32:29.431Z,20
2017-10-27T07:33:39.892Z,30
2017-10-27T07:34:50.314Z,40
2017-10-27T07:36:00.712Z,40
2017-10-27T07:37:11.113Z,35
2017-10-27T07:38:21.230Z,30
2017-10-27T07:39:31.681Z,25
2017-10-27T07:40:41.743Z,25
2017-10-27T07:41:52.172Z,40
2017-10-27T07:43:02.560Z,45
2017-10-27T07:44:12.640Z,40
2017-10-27T07:45:23.085Z,25
2017-10-27T07:46:33.172Z,20
2017-10-27T07:47:43.582Z,35
2017-10-27T07:48:53.657Z,40
2017-10-27T07:50:04.066Z,50
2017-10-27T07:51:14.138Z,50
2017-10-27T07:52:24.573Z,35
2017-10-27T07:53:34.982Z,30
2017-10-27T07:54:44.737Z,35
2017-10-27T07:55:55.141Z,30
2017-10-27T07:57:05.234Z,20
2017-10-27T07:58:15.665Z,15
2017-10-27T07:59:26.068Z,15
2017-10-27T08:00:36.508Z,15
2017-10-27T08:01:46.927Z,10
2017-10-27T08:02:57.384Z,15
2017-10-27T08:04:07.821Z,15
2017-10-27T08:05:17.908Z,30
2017-10-27T08:06:28.340Z,45
2017-10-27T08:07:38.411Z,50
2017-10-27T08:08:48.878Z,45
2017-10-27T08:09:59.286Z,45
2017-10-27T08:11:09.384Z,45
2017-10-27T08:12:19.796Z,40
2017-10-27T08:13:30.211Z,40
2017-10-27T08:14:40.346Z,45
2017-10-27T08:15:50.768Z,60
2017-10-27T08:17:01.443Z,65
2017-10-27T08:18:11.850Z,55
2017-10-27T08:19:21.946Z,55
2017-10-27T08:20:32.361Z,55
2017-10-27T08:21:42.773Z,60
2017-10-27T08:22:53.200Z,60
2017-10-27T08:24:03.286Z,70
2017-10-27T08:25:13.695Z,80
2017-10-27T08:26:24.111Z,75
2017-10-27T08:27:34.225Z,70
2017-10-27T08:28:44.649Z,65
2017-10-27T08:29:55.068Z,70
2017-10-27T08:31:05.482Z,65
2017-10-27T08:32:15.896Z,50
2017-10-27T08:33:26.319Z,40
2017-10-27T08:34:36.737Z,40
2017-10-27T08:35:47.179Z,35
2017-10-27T08:36:57.586Z,40
2017-10-27T08:38:08.054Z,45
2017-10-27T08:39:18.461Z,50
2017-10-27T08:40:28.872Z,50
2017-10-27T08:41:39.299Z,50
2017-10-27T08:42:49.035Z,50
2017-10-27T08:43:59.122Z,45
2017-10-27T08:45:09.203Z,40
2017-10-27T08:46:18.956Z,35
2017-10-27T08:47:28.713Z,30
2017-10-27T08:48:39.125Z,30
2017-10-27T08:49:49.197Z,35
2017-10-27T08:50:59.272Z,35
2017-10-27T08:52:09.680Z,35
2017-10-27T08:53:19.744Z,30
2017-10-27T08:54:29.821Z,30
2017-10-27T08:55:40.299Z,30
2017-10-27T08:56:50.716Z,30
2017-10-27T08:58:00.466Z,25
2017-10-27T08:59:10.558Z,25
2017-10-27T09:00:20.974Z,20
2017-10-27T09:01:31.398Z,20
2017-10-27T09:02:41.806Z,20
2017-10-27T09:03:52.201Z,25
2017-10-27T09:05:02.629Z,25
2017-10-27T09:06:13.028Z,25
2017-10-27T09:07:23.161Z,20
2017-10-27T09:08:33.570Z,20
2017-10-27T09:09:43.967Z,20
2017-10-27T09:10:54.064Z,20
2017-10-27T09:12:04.478Z,20
2017-10-27T09:13:14.282Z,20
2017-10-27T09:14:25.714Z,15
2017-10-27T09:15:36.149Z,15
2017-10-27T09:16:46.550Z,15
2017-10-27T09:17:56.952Z,15
2017-10-27T09:19:07.083Z,10
2017-10-27T09:20:17.491Z,10
2017-10-27T09:21:27.564Z,10
2017-10-27T09:22:37.985Z,15
2017-10-27T09:23:48.409Z,20
2017-10-27T09:24:58.819Z,20
2017-10-27T09:26:09.220Z,20
2017-10-27T09:27:19.624Z,15
2017-10-27T09:28:30.025Z,10
2017-10-27T09:29:40.436Z,5
2017-10-27T09:30:50.884Z,5
2017-10-27T09:32:01.284Z,10
2017-10-27T09:33:11.918Z,10
2017-10-27T09:34:22.314Z,10
2017-10-27T09:35:32.083Z,10
2017-10-27T09:36:42.507Z,5
2017-10-27T09:37:52.905Z,5
2017-10-27T09:39:03.314Z,10
2017-10-27T09:40:13.717Z,10
2017-10-27T09:41:23.808Z,15
2017-10-27T09:42:34.299Z,20
2017-10-27T09:43:44.402Z,25
2017-10-27T09:44:54.811Z,25
2017-10-27T09:46:05.063Z,30
2017-10-27T09:47:15.133Z,25
2017-10-27T09:48:25.594Z,20
2017-10-27T09:49:35.999Z,20
2017-10-27T09:50:46.075Z,30
2017-10-27T09:51:56.468Z,40
2017-10-27T09:53:06.555Z,35
2017-10-27T09:54:16.962Z,30
2017-10-27T09:55:27.365Z,30
2017-10-27T09:56:37.452Z,25
2017-10-27T09:57:47.843Z,20
2017-10-27T09:58:57.942Z,20
2017-10-27T10:00:08.351Z,20
2017-10-27T10:01:18.423Z,15
2017-10-27T10:02:28.521Z,15
2017-10-27T10:03:38.928Z,15
2017-10-27T10:04:49.004Z,15
2017-10-27T10:05:58.482Z,15
2017-10-27T10:07:08.883Z,15
2017-10-27T10:08:19.298Z,20
2017-10-27T10:09:29.715Z,20
2017-10-27T10:10:39.462Z,25
2017-10-27T10:11:49.582Z,25
2017-10-27T10:12:59.971Z,25
2017-10-27T10:14:10.052Z,25
2017-10-27T10:15:20.459Z,25
2017-10-27T10:16:30.865Z,25
2017-10-27T10:17:41.309Z,25
2017-10-27T10:18:51.727Z,30
2017-10-27T10:20:02.158Z,35
2017-10-27T10:21:12.585Z,40
2017-10-27T10:22:22.996Z,50
2017-10-27T10:23:33.412Z,55
2017-10-27T10:24:44.071Z,55
2017-10-27T10:25:54.472Z,55
2017-10-27T10:27:04.558Z,50
2017-10-27T10:28:14.978Z,50
2017-10-27T10:29:25.097Z,50
2017-10-27T10:30:35.182Z,55
2017-10-27T10:31:45.613Z,60
2017-10-27T10:32:56.001Z,60
2017-10-27T10:34:06.404Z,60
2017-10-27T10:35:16.877Z,55
2017-10-27T10:36:27.289Z,55
2017-10-27T10:37:37.377Z,50
2017-10-27T10:38:47.829Z,45
2017-10-27T10:39:58.233Z,45
2017-10-27T10:41:08.681Z,45
2017-10-27T10:42:19.094Z,50
2017-10-27T10:43:29.492Z,55
2017-10-27T10:44:39.560Z,60
2017-10-27T10:45:49.954Z,65
2017-10-27T10:47:00.068Z,80
2017-10-27T10:48:10.476Z,85
2017-10-27T10:49:20.875Z,85
2017-10-27T10:50:30.928Z,90
2017-10-27T10:51:41.009Z,90
2017-10-27T10:52:51.456Z,95
2017-10-27T10:54:01.873Z,100
2017-10-27T10:55:12.294Z,95
2017-10-27T10:56:22.691Z,95
2017-10-27T10:57:33.087Z,95
2017-10-27T10:58:43.539Z,95
2017-10-27T10:59:53.956Z,90
2017-10-27T11:01:04.348Z,90
2017-10-27T11:02:14.763Z,95
2017-10-27T11:03:25.181Z,95
2017-10-27T11:04:35.650Z,95
2017-10-27T11:05:46.081Z,95
2017-10-27T11:06:56.157Z,95
2017-10-27T11:08:06.573Z,90
2017-10-27T11:09:16.980Z,90
2017-10-27T11:10:27.394Z,85
2017-10-27T11:11:37.469Z,80
2017-10-27T11:12:47.547Z,75
2017-10-27T11:13:57.947Z,70
2017-10-27T11:15:08.346Z,65
2017-10-27T11:16:18.791Z,60
2017-10-27T11:17:29.227Z,55
2017-10-27T11:18:39.635Z,55
2017-10-27T11:19:49.716Z,50
2017-10-27T11:20:59.472Z,50
2017-10-27T11:22:09.585Z,50
2017-10-27T11:23:19.967Z,45
2017-10-27T11:24:29.715Z,45
2017-10-27T11:25:40.100Z,50
2017-10-27T11:26:50.175Z,50
2017-10-27T11:28:00.607Z,50
2017-10-27T11:29:11.020Z,50
2017-10-27T11:30:21.418Z,50
2017-10-27T11:31:31.848Z,50
2017-10-27T11:32:42.289Z,50
2017-10-27T11:33:52.742Z,50
2017-10-27T11:35:03.148Z,50
2017-10-27T11:36:13.547Z,50
2017-10-27T11:37:23.958Z,50
2017-10-27T11:38:34.015Z,45
2017-10-27T11:39:44.479Z,45
2017-10-27T11:40:54.547Z,45
2017-10-27T11:42:04.619Z,40
2017-10-27T11:43:15.017Z,40
2017-10-27T11:44:25.429Z,35
2017-10-27T11:45:35.525Z,35
2017-10-27T11:46:45.597Z,35
2017-10-27T11:47:56.005Z,35
2017-10-27T11:49:06.431Z,35
2017-10-27T11:50:16.834Z,35
2017-10-27T11:51:27.285Z,30
2017-10-27T11:52:37.673Z,25
2017-10-27T11:53:48.093Z,25
2017-10-27T11:54:58.495Z,25
2017-10-27T11:56:08.908Z,25
2017-10-27T11:57:19.047Z,25
2017-10-27T11:58:29.450Z,30
2017-10-27T11:59:39.552Z,30
2017-10-27T12:00:49.967Z,30
2017-10-27T12:02:00.394Z,30
2017-10-27T12:03:10.474Z,30
2017-10-27T12:04:20.561Z,30
2017-10-27T12:05:30.630Z,30
2017-10-27T12:06:41.034Z,35
2017-10-27T12:07:51.469Z,40
2017-10-27T12:09:01.894Z,45
2017-10-27T12:10:11.983Z,45
2017-10-27T12:11:22.081Z,45
2017-10-27T12:12:32.506Z,45
2017-10-27T12:13:42.925Z,40
2017-10-27T12:14:53.335Z,40
2017-10-27T12:16:03.754Z,35
2017-10-27T12:17:14.160Z,35
2017-10-27T12:18:24.235Z,35
2017-10-27T12:19:34.309Z,35
2017-10-27T12:20:44.703Z,35
2017-10-27T12:21:55.096Z,40
2017-10-27T12:23:05.523Z,40
2017-10-27T12:24:15.932Z,45
2017-10-27T12:25:26.342Z,50
2017-10-27T12:26:37.025Z,55
2017-10-27T12:27:47.454Z,65
2017-10-27T12:28:57.569Z,75
2017-10-27T12:30:07.988Z,85
2017-10-27T12:31:18.394Z,95
2017-10-27T12:32:28.861Z,100
2017-10-27T12:33:39.274Z,105
2017-10-27T12:34:49.692Z,105
2017-10-27T12:36:00.086Z,110
2017-10-27T12:37:10.498Z,110
2017-10-27T12:38:20.937Z,115
2017-10-27T12:39:31.347Z,125
2017-10-27T12:40:41.745Z,135
2017-10-27T12:41:52.146Z,150
2017-10-27T12:43:02.549Z,170
2017-10-27T12:44:12.940Z,155
2017-10-27T12:45:23.347Z,150
2017-10-27T12:46:33.431Z,165
2017-10-27T12:47:43.834Z,165
2017-10-27T12:48:53.585Z,150
2017-10-27T12:50:04.702Z,135
2017-10-27T12:51:14.763Z,130
2017-10-27T12:52:25.163Z,125
2017-10-27T12:53:35.483Z,135
2017-10-27T12:54:45.889Z,145
2017-10-27T12:55:56.340Z,150
2017-10-27T12:57:06.758Z,130
2017-10-27T12:58:16.491Z,125
2017-10-27T12:59:26.906Z,140
2017-10-27T13:00:37.330Z,130
2017-10-27T13:01:47.455Z,125
2017-10-27T13:02:57.859Z,130
2017-10-27T13:04:08.272Z,130
2017-10-27T13:05:18.351Z,135
2017-10-27T13:06:28.760Z,135
2017-10-27T13:07:38.899Z,135
2017-10-27T13:08:49.310Z,130
2017-10-27T13:09:59.400Z,130
2017-10-27T13:11:09.822Z,115
2017-10-27T13:12:20.228Z,115
2017-10-27T13:13:30.315Z,110
2017-10-27T13:14:40.394Z,100
2017-10-27T13:15:50.792Z,95
2017-10-27T13:17:01.203Z,90
2017-10-27T13:18:11.647Z,90
2017-10-27T13:19:21.775Z,85
2017-10-27T13:20:32.185Z,85
2017-10-27T13:21:42.591Z,75
2017-10-27T13:22:53.008Z,70
2017-10-27T13:24:03.107Z,70
2017-10-27T13:25:13.587Z,65
2017-10-27T13:26:23.659Z,70
2017-10-27T13:27:34.079Z,80
2017-10-27T13:28:44.483Z,75
2017-10-27T13:29:54.907Z,95
2017-10-27T13:31:04.970Z,95
2017-10-27T13:32:15.394Z,85
2017-10-27T13:33:25.823Z,90
2017-10-27T13:34:35.910Z,105
2017-10-27T13:35:46.016Z,165
2017-10-27T13:36:56.117Z,165
2017-10-27T13:38:06.532Z,165
2017-10-27T13:39:16.939Z,170
2017-10-27T13:40:27.324Z,170
2017-10-27T13:41:37.748Z,180
2017-10-27T13:42:47.843Z,180
2017-10-27T13:43:58.268Z,185
2017-10-27T13:45:08.675Z,185
2017-10-27T13:46:19.094Z,175
2017-10-27T13:47:29.529Z,165
2017-10-27T13:48:39.615Z,165
2017-10-27T13:49:50.034Z,165
2017-10-27T13:51:00.464Z,170
2017-10-27T13:52:10.933Z,115
2017-10-27T13:53:21.027Z,115
2017-10-27T13:54:31.441Z,90
2017-10-27T13:55:41.869Z,120
2017-10-27T13:56:52.305Z,140
2017-10-27T13:58:02.719Z,160
2017-10-27T13:59:12.812Z,160
2017-10-27T14:00:22.894Z,155
2017-10-27T14:01:33.320Z,135
2017-10-27T14:02:43.628Z,100
2017-10-27T14:03:54.072Z,140
2017-10-27T14:05:04.546Z,130
2017-10-27T14:06:14.971Z,105
2017-10-27T14:07:25.391Z,100
2017-10-27T14:08:35.812Z,105
2017-10-27T14:09:46.227Z,100
2017-10-27T14:10:56.635Z,90
2017-10-27T14:12:07.045Z,75
2017-10-27T14:13:17.451Z,70
2017-10-27T14:14:27.859Z,70
2017-10-27T14:15:38.246Z,110
2017-10-27T14:16:48.380Z,95
2017-10-27T14:17:58.812Z,65
2017-10-27T14:19:09.233Z,65
2017-10-27T14:20:19.662Z,60
2017-10-27T14:21:30.063Z,60
2017-10-27T14:22:40.537Z,60
2017-10-27T14:23:50.949Z,60
2017-10-27T14:25:01.344Z,60
2017-10-27T14:26:11.781Z,60
2017-10-27T14:27:21.855Z,60
2017-10-27T14:28:32.333Z,60
2017-10-27T14:29:42.765Z,60
2017-10-27T14:30:53.178Z,60
2017-10-27T14:32:03.640Z,60
2017-10-27T14:33:15.116Z,60
2017-10-27T14:34:25.566Z,55
2017-10-27T14:35:35.975Z,50
2017-10-27T14:36:46.373Z,45
2017-10-27T14:37:56.783Z,45
2017-10-27T14:39:07.193Z,45
2017-10-27T14:40:17.266Z,45
2017-10-27T14:41:28.153Z,45
2017-10-27T14:42:38.580Z,45
2017-10-27T14:43:48.992Z,45
2017-10-27T14:45:18.650Z,45
2017-10-27T14:46:28.727Z,40
2017-10-27T14:47:39.165Z,40
2017-10-27T14:48:49.568Z,35
2017-10-27T14:49:59.952Z,35
2017-10-27T14:51:10.357Z,35
2017-10-27T14:52:20.782Z,35
2017-10-27T14:53:30.892Z,30
2017-10-27T14:54:41.316Z,30
2017-10-27T14:55:51.416Z,30
2017-10-27T14:57:01.558Z,30
2017-10-27T14:58:11.968Z,30
2017-10-27T14:59:22.069Z,30
2017-10-27T15:00:32.474Z,25
2017-10-27T15:01:42.565Z,25
2017-10-27T15:02:52.978Z,25
2017-10-27T15:04:03.041Z,25
2017-10-27T15:05:13.462Z,25
2017-10-27T15:06:52.262Z,25
2017-10-27T15:08:03.721Z,25
2017-10-27T15:09:13.805Z,25
2017-10-27T15:10:26.151Z,25
2017-10-27T15:12:47.493Z,30
2017-10-27T15:13:57.923Z,30
2017-10-27T15:15:08.335Z,35
2017-10-27T15:16:18.734Z,35
2017-10-27T15:17:29.135Z,30
2017-10-27T15:18:39.546Z,30
2017-10-27T15:19:50.088Z,25
2017-10-27T15:21:01.854Z,25
2017-10-27T15:22:15.960Z,20
2017-10-27T15:23:27.515Z,15
2017-10-27T15:24:38.015Z,15
2017-10-27T15:25:52.726Z,15
2017-10-27T15:27:10.759Z,15
2017-10-27T15:28:22.135Z,10
2017-10-27T15:29:32.532Z,10
2017-10-27T15:30:42.958Z,10
2017-10-27T15:31:53.395Z,10
2017-10-27T15:33:03.802Z,10
2017-10-27T15:34:14.226Z,10
2017-10-27T15:35:24.628Z,5
2017-10-27T15:36:34.690Z,5
2017-10-27T15:37:44.757Z,5
2017-10-27T15:38:55.168Z,5
2017-10-27T15:40:05.600Z,5
2017-10-27T15:41:16.014Z,5
2017-10-27T15:42:26.436Z,5
2017-10-27T15:43:36.519Z,0
2017-10-27T15:44:46.670Z,0
2017-10-27T15:45:57.106Z,0
2017-10-27T15:47:07.539Z,0
2017-10-27T15:48:17.616Z,0
2017-10-27T15:49:28.041Z,0
2017-10-27T15:50:38.455Z,0
2017-10-27T15:51:48.858Z,0
2017-10-27T15:52:59.267Z,0
2017-10-27T15:54:09.665Z,0
2017-10-27T15:55:20.068Z,0
2017-10-27T15:56:30.191Z,0
2017-10-27T15:57:40.635Z,0
2017-10-27T15:58:51.036Z,0
2017-10-27T16:00:01.455Z,0
2017-10-27T16:01:11.877Z,0
2017-10-27T16:02:22.272Z,0
2017-10-27T16:03:32.686Z,0
2017-10-27T16:04:42.425Z,0
2017-10-27T16:05:52.507Z,0
2017-10-27T16:07:02.904Z,0
2017-10-27T16:08:13.022Z,0
2017-10-27T16:09:23.429Z,0
2017-10-27T16:10:33.851Z,0
2017-10-27T16:11:44.260Z,0
2017-10-27T16:12:54.332Z,0
2017-10-27T16:14:04.731Z,0
2017-10-27T16:15:14.797Z,0
2017-10-27T16:16:25.221Z,0
2017-10-27T16:17:35.611Z,0
2017-10-27T16:18:46.013Z,0
2017-10-27T16:19:56.482Z,0
2017-10-27T16:21:06.915Z,0
2017-10-27T16:22:17.366Z,0
2017-10-27T16:23:27.430Z,0
2017-10-27T16:24:37.492Z,0
2017-10-27T16:25:47.646Z,0
2017-10-27T16:26:58.053Z,0
2017-10-27T16:28:08.131Z,0
2017-10-27T16:29:18.530Z,0
2017-10-27T16:30:28.609Z,0
2017-10-27T16:31:39.073Z,0
2017-10-27T16:32:49.497Z,0
2017-10-27T16:33:59.901Z,0
2017-10-27T16:35:09.981Z,0
2017-10-27T16:36:20.395Z,0
2017-10-27T16:37:30.489Z,0
2017-10-27T16:38:40.577Z,0
2017-10-27T16:39:50.643Z,0
2017-10-27T16:41:01.066Z,0
2017-10-27T16:42:11.521Z,0
2017-10-27T16:43:21.983Z,0
2017-10-27T16:44:32.399Z,0
2017-10-27T16:45:42.815Z,0
2017-10-27T16:46:53.226Z,0
2017-10-27T16:48:03.619Z,0
2017-10-27T16:49:13.728Z,0
2017-10-27T16:50:24.129Z,0
2017-10-27T16:51:34.546Z,0
2017-10-27T16:52:44.627Z,0
2017-10-27T16:53:54.728Z,0
2017-10-27T16:55:05.326Z,0
2017-10-27T16:56:15.708Z,0
2017-10-27T16:57:25.792Z,0
2017-10-27T16:58:35.867Z,0
2017-10-27T16:59:46.283Z,0
2017-10-27T17:00:56.756Z,0
2017-10-27T17:02:07.195Z,0
2017-10-27T17:03:17.659Z,0
2017-10-27T17:04:28.084Z,0
2017-10-27T17:05:38.157Z,0
2017-10-27T17:06:48.578Z,0
2017-10-27T17:07:58.989Z,0
2017-10-27T17:09:09.392Z,0
2017-10-27T17:10:19.797Z,0
2017-10-27T17:11:29.871Z,0
2017-10-27T17:12:40.511Z,0
2017-10-27T17:13:50.595Z,0
2017-10-27T17:15:00.683Z,0
2017-10-27T17:16:11.118Z,0
2017-10-27T17:17:21.511Z,0
2017-10-27T17:18:31.941Z,0
2017-10-27T17:19:42.368Z,0
2017-10-27T17:20:52.439Z,0
2017-10-27T17:22:02.867Z,0
2017-10-27T17:23:13.178Z,0
2017-10-27T17:24:23.610Z,0
2017-10-27T17:25:34.037Z,0
2017-10-27T17:26:44.460Z,0
2017-10-27T17:27:54.561Z,0
2017-10-27T17:29:04.970Z,0
2017-10-27T17:30:15.392Z,0
2017-10-27T17:31:25.509Z,0
2017-10-27T17:32:35.924Z,0